createdAt,value
2023-01-09T00:16:15.052Z,92.3
2023-01-09T00:36:15.010Z,92.2
2023-01-09T00:56:14.980Z,92.2
2023-01-09T01:36:14.947Z,92.6
2023-01-09T01:56:14.886Z,92.8
2023-01-09T02:16:14.906Z,91.3
2023-01-09T02:36:14.827Z,92
2023-01-09T02:56:14.792Z,92
2023-01-09T03:16:14.762Z,92.4
2023-01-09T03:36:14.735Z,92.2
2023-01-09T03:56:14.699Z,91.5
2023-01-09T04:16:14.714Z,90.8
2023-01-09T04:36:14.665Z,90.3
2023-01-09T04:56:14.655Z,88.6
2023-01-09T05:16:14.592Z,89
2023-01-09T05:36:14.566Z,89.5
2023-01-09T06:16:14.514Z,86.2
2023-01-09T06:36:14.449Z,84.7
2023-01-09T06:56:14.432Z,87.8
2023-01-09T07:16:14.455Z,89.5
2023-01-09T07:36:14.352Z,87.5
2023-01-09T07:56:14.319Z,85.2
2023-01-09T08:16:14.402Z,84.5
2023-01-09T08:36:14.315Z,85.2
2023-01-09T08:56:14.228Z,87.1
2023-01-09T09:36:14.159Z,89.9
2023-01-09T09:56:14.139Z,90.1
2023-01-09T10:16:14.194Z,88.8
2023-01-09T10:56:14.040Z,85.1
2023-01-09T11:16:14.066Z,83.9
2023-01-09T11:36:13.971Z,82.1
2023-01-09T11:56:13.967Z,82.6
2023-01-09T12:16:13.925Z,83.6
2023-01-09T12:36:13.876Z,82.6
2023-01-09T13:16:13.871Z,84.9
2023-01-09T13:56:13.804Z,84.9
2023-01-09T14:16:13.768Z,84.6
2023-01-09T14:36:13.683Z,84.8
2023-01-09T14:56:13.647Z,87.2
2023-01-09T15:36:13.579Z,93.9
2023-01-09T15:56:13.548Z,92.6
2023-01-09T16:16:13.636Z,93.4
2023-01-09T16:36:13.510Z,94.6
2023-01-09T16:56:13.477Z,94.6
2023-01-09T17:16:13.446Z,93.4
2023-01-09T17:36:13.455Z,93.3
2023-01-09T17:56:13.373Z,92.3
2023-01-09T18:36:13.360Z,90.1
2023-01-09T18:56:13.271Z,92.8
2023-01-09T19:16:13.304Z,94.9
2023-01-09T19:36:13.392Z,95.3
2023-01-09T19:56:13.261Z,94.7
2023-01-09T20:16:13.228Z,95
2023-01-09T20:36:13.124Z,94.4
2023-01-09T20:56:13.122Z,93.2
2023-01-09T21:16:13.096Z,93.1
2023-01-09T21:36:13.049Z,92.9
2023-01-09T21:56:12.991Z,92.9
2023-01-09T22:16:13.030Z,93.6
2023-01-09T22:36:12.948Z,93.5
2023-01-09T22:56:12.930Z,93.6
2023-01-09T23:16:12.935Z,92.1
2023-01-09T23:36:12.880Z,91.8
2023-01-09T23:56:12.877Z,92.1
